Terminal Aerodrome Forecast
Issued by NWS Lake Charles, LA

Home | Current Version | Previous Version | Text Only | Print | Product List | Glossary On
Versions: 1 2 3 4 5 6 7 8 9 10 11 12 13 14 15 16 17 18 19 20
179
FTUS44 KLCH 240906 AAC
TAFARA
TAF AMD
KARA 240906Z 2409/2506 16011KT P6SM BKN010 BKN015 OVC024
      TEMPO 2410/2414 4SM BR OVC007
     FM241600 18012G22KT P6SM VCSH BKN015=

USA.gov is the U.S. government's official web portal to all federal, state and local government web resources and services.